createdAt,value
2018-07-19T00:00:58.797Z,22.60
2018-07-19T00:03:30.211Z,22.50
2018-07-19T00:06:01.110Z,22.40
2018-07-19T00:08:33.204Z,22.30
2018-07-19T00:11:04.289Z,22.20
2018-07-19T00:13:35.727Z,22.20
2018-07-19T00:16:06.688Z,22.10
2018-07-19T00:18:37.928Z,22.00
2018-07-19T00:21:09.506Z,22.00
2018-07-19T00:23:41.995Z,21.90
2018-07-19T00:28:44.779Z,21.70
2018-07-19T00:31:16.565Z,21.70
2018-07-19T00:33:47.532Z,21.70
2018-07-19T00:36:19.235Z,21.60
2018-07-19T00:38:50.523Z,21.60
2018-07-19T00:41:21.685Z,21.50
2018-07-19T00:43:53.640Z,21.40
2018-07-19T00:46:24.557Z,21.40
2018-07-19T00:48:55.431Z,21.30
2018-07-19T00:51:25.741Z,21.20
2018-07-19T00:53:57.458Z,21.20
2018-07-19T00:56:28.990Z,21.10
2018-07-19T00:59:00.399Z,21.10
2018-07-19T01:01:31.919Z,21.00
2018-07-19T01:04:03.948Z,21.00
2018-07-19T01:06:34.624Z,21.00
2018-07-19T01:09:09.302Z,20.90
2018-07-19T01:11:40.406Z,20.80
2018-07-19T01:14:11.863Z,20.80
2018-07-19T01:16:42.950Z,20.80
2018-07-19T01:19:14.273Z,20.70
2018-07-19T01:21:45.512Z,20.70
2018-07-19T01:24:17.238Z,20.70
2018-07-19T01:26:50.244Z,20.60
2018-07-19T01:29:21.695Z,20.70
2018-07-19T01:31:52.858Z,20.60
2018-07-19T01:34:25.812Z,20.60
2018-07-19T01:36:57.753Z,20.50
2018-07-19T01:39:29.356Z,20.50
2018-07-19T01:42:20.463Z,20.50
2018-07-19T01:44:51.590Z,20.40
2018-07-19T01:47:22.526Z,20.40
2018-07-19T01:49:54.192Z,20.30
2018-07-19T01:52:25.211Z,20.30
2018-07-19T01:54:56.777Z,20.30
2018-07-19T01:57:28.084Z,20.30
2018-07-19T01:59:59.499Z,20.20
2018-07-19T02:02:30.777Z,20.20
2018-07-19T02:05:02.999Z,20.10
2018-07-19T02:07:34.361Z,20.10
2018-07-19T02:10:06.449Z,20.10
2018-07-19T02:12:38.072Z,20.10
2018-07-19T02:15:09.366Z,20.10
2018-07-19T02:17:41.025Z,20.10
2018-07-19T02:20:12.281Z,20.00
2018-07-19T02:22:44.089Z,20.00
2018-07-19T02:25:15.632Z,20.00
2018-07-19T02:27:47.736Z,19.90
2018-07-19T02:30:18.477Z,19.90
2018-07-19T02:32:50.241Z,19.90
2018-07-19T02:35:21.603Z,19.80
2018-07-19T02:37:53.357Z,19.80
2018-07-19T02:40:27.417Z,19.80
2018-07-19T02:42:59.017Z,19.80
2018-07-19T02:45:30.019Z,19.70
2018-07-19T02:48:00.697Z,19.70
2018-07-19T02:50:31.421Z,19.60
2018-07-19T02:53:02.643Z,19.60
2018-07-19T02:55:34.291Z,19.60
2018-07-19T02:58:05.639Z,19.60
2018-07-19T03:00:36.037Z,19.60
2018-07-19T03:03:08.185Z,19.60
2018-07-19T03:05:39.990Z,19.60
2018-07-19T03:08:10.762Z,19.60
2018-07-19T03:10:43.259Z,19.60
2018-07-19T03:13:14.388Z,19.50
2018-07-19T03:15:46.459Z,19.50
2018-07-19T03:18:17.508Z,19.50
2018-07-19T03:20:48.797Z,19.50
2018-07-19T03:23:20.077Z,19.50
2018-07-19T03:25:51.930Z,19.50
2018-07-19T03:28:22.625Z,19.40
2018-07-19T03:30:55.394Z,19.40
2018-07-19T03:33:26.481Z,19.40
2018-07-19T03:35:58.543Z,19.30
2018-07-19T03:38:30.504Z,19.30
2018-07-19T03:41:02.846Z,19.20
2018-07-19T03:43:34.094Z,19.20
2018-07-19T03:46:05.049Z,19.20
2018-07-19T03:48:35.909Z,19.10
2018-07-19T03:51:08.090Z,19.10
2018-07-19T03:53:39.573Z,19.10
2018-07-19T03:56:12.090Z,19.00
2018-07-19T03:58:43.559Z,19.00
2018-07-19T04:01:15.464Z,19.00
2018-07-19T04:03:46.569Z,19.00
2018-07-19T04:06:18.091Z,19.00
2018-07-19T04:08:49.599Z,19.00
2018-07-19T04:11:21.034Z,19.00
2018-07-19T04:13:52.139Z,19.00
2018-07-19T04:16:23.623Z,19.00
2018-07-19T04:18:54.206Z,19.00
2018-07-19T04:21:26.065Z,19.00
2018-07-19T04:23:57.125Z,19.00
2018-07-19T04:26:28.705Z,19.00
2018-07-19T04:29:00.713Z,19.00
2018-07-19T04:31:32.172Z,19.00
2018-07-19T04:34:02.901Z,19.00
2018-07-19T04:36:37.423Z,19.00
2018-07-19T04:39:09.195Z,19.10
2018-07-19T04:41:41.390Z,19.10
2018-07-19T04:44:12.915Z,19.10
2018-07-19T04:46:44.723Z,19.20
2018-07-19T04:49:16.015Z,19.20
2018-07-19T04:51:47.149Z,19.20
2018-07-19T04:54:19.016Z,19.20
2018-07-19T04:56:50.913Z,19.20
2018-07-19T04:59:22.263Z,19.20
2018-07-19T05:01:53.292Z,19.30
2018-07-19T05:04:24.725Z,19.30
2018-07-19T05:09:26.614Z,19.30
2018-07-19T05:11:57.301Z,19.40
2018-07-19T05:14:28.777Z,19.50
2018-07-19T05:17:00.417Z,19.50
2018-07-19T05:19:32.201Z,19.60
2018-07-19T05:22:04.065Z,19.70
2018-07-19T05:24:35.810Z,19.70
2018-07-19T05:27:07.972Z,19.80
2018-07-19T05:29:39.277Z,19.90
2018-07-19T05:32:10.568Z,19.90
2018-07-19T05:34:41.960Z,20.00
2018-07-19T05:37:13.927Z,20.00
2018-07-19T05:39:45.538Z,20.10
2018-07-19T05:42:16.691Z,20.20
2018-07-19T05:44:48.107Z,20.30
2018-07-19T05:47:19.284Z,20.40
2018-07-19T05:49:50.661Z,20.40
2018-07-19T05:52:22.315Z,20.50
2018-07-19T05:54:53.628Z,20.60
2018-07-19T05:57:25.686Z,20.70
2018-07-19T05:59:56.714Z,20.70
2018-07-19T06:02:29.249Z,20.80
2018-07-19T06:05:00.612Z,20.90
2018-07-19T06:07:32.253Z,21.00
2018-07-19T06:10:04.376Z,21.10
2018-07-19T06:12:35.970Z,21.20
2018-07-19T06:15:08.035Z,21.30
2018-07-19T06:17:39.624Z,21.40
2018-07-19T06:20:11.191Z,21.50
2018-07-19T06:22:42.601Z,21.60
2018-07-19T06:25:13.145Z,21.70
2018-07-19T06:27:44.352Z,21.80
2018-07-19T06:30:15.791Z,22.00
2018-07-19T06:32:48.022Z,22.10
2018-07-19T06:35:18.575Z,22.20
2018-07-19T06:37:50.574Z,22.30
2018-07-19T06:40:22.906Z,22.50
2018-07-19T06:42:54.543Z,22.60
2018-07-19T06:45:25.921Z,22.70
2018-07-19T06:47:57.209Z,22.80
2018-07-19T06:50:28.967Z,22.90
2018-07-19T06:53:01.078Z,23.00
2018-07-19T06:55:32.057Z,23.10
2018-07-19T06:58:03.833Z,23.20
2018-07-19T07:00:35.506Z,23.30
2018-07-19T07:03:06.965Z,23.40
2018-07-19T07:05:38.719Z,23.50
2018-07-19T07:08:11.158Z,23.60
2018-07-19T07:10:42.422Z,23.70
2018-07-19T07:13:14.382Z,23.70
2018-07-19T07:15:45.620Z,23.80
2018-07-19T07:18:17.820Z,24.00
2018-07-19T07:20:50.247Z,24.10
2018-07-19T07:25:54.803Z,24.30
2018-07-19T07:28:26.664Z,24.30
2018-07-19T07:30:57.453Z,24.40
2018-07-19T07:33:29.477Z,24.50
2018-07-19T07:36:00.270Z,24.60
2018-07-19T07:41:01.606Z,24.70
2018-07-19T07:43:33.040Z,24.80
2018-07-19T07:46:03.445Z,24.90
2018-07-19T07:48:35.278Z,25.00
2018-07-19T07:51:06.051Z,25.20
2018-07-19T07:53:37.912Z,25.30
2018-07-19T07:56:09.180Z,25.40
2018-07-19T07:58:41.095Z,25.50
2018-07-19T08:03:43.473Z,25.60
2018-07-19T08:06:15.105Z,25.70
2018-07-19T08:08:46.405Z,25.70
2018-07-19T08:11:17.644Z,25.80
2018-07-19T08:13:50.456Z,25.80
2018-07-19T08:16:21.867Z,25.80
2018-07-19T08:18:52.860Z,25.80
2018-07-19T08:21:24.477Z,25.80
2018-07-19T08:23:56.687Z,25.80
2018-07-19T08:26:27.840Z,25.90
2018-07-19T08:28:59.037Z,25.90
2018-07-19T08:31:29.848Z,25.90
2018-07-19T08:34:01.746Z,25.90
2018-07-19T08:36:33.191Z,26.00
2018-07-19T08:39:04.939Z,26.00
2018-07-19T08:41:36.324Z,26.10
2018-07-19T08:44:08.071Z,26.10
2018-07-19T08:46:38.917Z,26.20
2018-07-19T08:49:09.686Z,26.30
2018-07-19T08:51:40.559Z,26.30
2018-07-19T08:54:11.798Z,26.40
2018-07-19T08:56:43.224Z,26.50
2018-07-19T08:59:14.229Z,26.50
2018-07-19T09:01:46.066Z,26.60
2018-07-19T09:04:17.550Z,26.70
2018-07-19T09:06:49.121Z,26.80
2018-07-19T09:09:20.762Z,26.80
2018-07-19T09:11:51.886Z,27.00
2018-07-19T09:16:54.040Z,27.20
2018-07-19T09:19:25.919Z,27.40
2018-07-19T09:21:57.402Z,27.50
2018-07-19T09:24:28.770Z,27.60
2018-07-19T09:26:59.856Z,27.80
2018-07-19T09:29:31.307Z,28.10
2018-07-19T09:34:38.833Z,28.30
2018-07-19T09:37:10.604Z,29.00
2018-07-19T09:39:42.004Z,29.40
2018-07-19T09:42:13.281Z,29.70
2018-07-19T09:44:44.355Z,30.10
2018-07-19T09:47:15.851Z,30.50
2018-07-19T09:49:48.061Z,30.70
2018-07-19T09:52:18.960Z,31.00
2018-07-19T09:54:57.710Z,31.40
2018-07-19T09:57:29.702Z,31.90
2018-07-19T10:00:01.354Z,32.40
2018-07-19T10:02:32.682Z,32.80
2018-07-19T10:05:04.302Z,32.90
2018-07-19T10:10:05.067Z,32.50
2018-07-19T10:12:35.747Z,32.00
2018-07-19T10:15:07.747Z,31.40
2018-07-19T10:17:39.334Z,30.90
2018-07-19T10:20:10.420Z,30.50
2018-07-19T10:22:42.860Z,30.10
2018-07-19T10:25:15.610Z,29.80
2018-07-19T10:27:46.729Z,29.50
2018-07-19T10:30:17.704Z,29.40
2018-07-19T10:32:48.487Z,29.20
2018-07-19T10:35:20.211Z,29.00
2018-07-19T10:37:50.714Z,28.80
2018-07-19T10:40:22.463Z,28.70
2018-07-19T10:42:53.917Z,28.60
2018-07-19T10:45:25.810Z,28.60
2018-07-19T10:47:57.722Z,28.50
2018-07-19T10:50:29.889Z,28.40
2018-07-19T10:53:01.202Z,28.30
2018-07-19T10:55:32.203Z,28.20
2018-07-19T10:58:03.108Z,28.00
2018-07-19T11:00:35.226Z,27.80
2018-07-19T11:03:06.606Z,27.80
2018-07-19T11:05:38.002Z,27.70
2018-07-19T11:08:10.607Z,27.70
2018-07-19T11:10:41.371Z,27.60
2018-07-19T11:13:12.530Z,27.60
2018-07-19T11:15:43.834Z,27.50
2018-07-19T11:18:15.211Z,27.50
2018-07-19T11:23:18.292Z,27.60
2018-07-19T11:25:49.748Z,27.60
2018-07-19T11:28:20.957Z,27.60
2018-07-19T11:30:52.687Z,27.50
2018-07-19T11:33:24.227Z,27.50
2018-07-19T11:35:55.371Z,27.50
2018-07-19T11:38:26.542Z,27.50
2018-07-19T11:40:57.690Z,27.60
2018-07-19T11:43:28.834Z,27.60
2018-07-19T11:46:02.407Z,27.60
2018-07-19T11:48:33.999Z,27.70
2018-07-19T11:51:05.097Z,27.70
2018-07-19T11:53:36.404Z,27.70
2018-07-19T11:56:07.507Z,27.60
2018-07-19T11:58:38.209Z,27.50
2018-07-19T12:01:09.180Z,27.50
2018-07-19T12:03:40.419Z,27.60
2018-07-19T12:06:12.643Z,27.70
2018-07-19T12:08:44.477Z,27.70
2018-07-19T12:11:16.319Z,27.90
2018-07-19T12:13:47.752Z,27.90
2018-07-19T12:16:19.400Z,28.00
2018-07-19T12:18:50.461Z,28.10
2018-07-19T12:21:20.972Z,28.10
2018-07-19T12:26:21.798Z,28.10
2018-07-19T12:28:52.593Z,28.20
2018-07-19T12:31:23.878Z,28.20
2018-07-19T12:33:54.696Z,28.20
2018-07-19T12:38:55.662Z,28.30
2018-07-19T12:41:26.923Z,28.30
2018-07-19T12:43:56.955Z,28.40
2018-07-19T12:46:28.329Z,28.40
2018-07-19T12:48:59.449Z,28.40
2018-07-19T12:51:30.546Z,28.40
2018-07-19T12:54:01.572Z,28.40
2018-07-19T12:56:32.839Z,28.40
2018-07-19T12:59:03.877Z,28.40
2018-07-19T13:01:35.771Z,28.40
2018-07-19T13:04:06.106Z,28.40
2018-07-19T13:06:38.677Z,28.50
2018-07-19T13:09:10.141Z,28.50
2018-07-19T13:11:41.426Z,28.50
2018-07-19T13:14:13.009Z,28.50
2018-07-19T13:16:44.579Z,28.50
2018-07-19T13:19:14.375Z,28.50
2018-07-19T13:21:45.941Z,28.50
2018-07-19T13:24:16.501Z,28.50
2018-07-19T13:26:47.474Z,28.60
2018-07-19T13:29:19.044Z,28.60
2018-07-19T13:31:50.071Z,28.60
2018-07-19T13:34:21.211Z,28.70
2018-07-19T13:36:52.973Z,28.70
2018-07-19T13:39:23.645Z,28.70
2018-07-19T13:41:55.261Z,28.70
2018-07-19T13:44:25.511Z,28.70
2018-07-19T13:46:57.097Z,28.80
2018-07-19T13:49:28.089Z,28.80
2018-07-19T13:51:59.256Z,28.80
2018-07-19T13:54:40.919Z,28.90
2018-07-19T13:57:12.494Z,28.90
2018-07-19T13:59:43.442Z,29.00
2018-07-19T14:02:15.186Z,29.00
2018-07-19T14:04:45.763Z,29.00
2018-07-19T14:07:17.939Z,29.00
2018-07-19T14:09:49.673Z,29.10
2018-07-19T14:12:20.361Z,29.10
2018-07-19T14:14:51.941Z,29.10
2018-07-19T14:17:23.854Z,29.10
2018-07-19T14:19:55.642Z,29.10
2018-07-19T14:22:27.129Z,29.10
2018-07-19T14:24:57.399Z,29.10
2018-07-19T14:27:29.595Z,29.20
2018-07-19T14:30:00.460Z,29.20
2018-07-19T14:32:32.125Z,29.20
2018-07-19T14:35:02.999Z,29.20
2018-07-19T14:37:34.848Z,29.20
2018-07-19T14:40:05.465Z,29.20
2018-07-19T14:45:07.423Z,29.30
2018-07-19T14:47:39.670Z,29.30
2018-07-19T14:50:10.127Z,29.30
2018-07-19T14:52:41.345Z,29.40
2018-07-19T14:55:13.185Z,29.40
2018-07-19T14:57:43.677Z,29.40
2018-07-19T15:02:45.540Z,29.40
2018-07-19T15:05:16.702Z,29.50
2018-07-19T15:07:47.569Z,29.50
2018-07-19T15:10:18.853Z,29.60
2018-07-19T15:12:51.210Z,29.60
2018-07-19T15:15:21.805Z,29.60
2018-07-19T15:17:53.175Z,29.70
2018-07-19T15:20:23.711Z,29.70
2018-07-19T15:22:55.066Z,29.70
2018-07-19T15:25:26.534Z,29.70
2018-07-19T15:27:58.256Z,29.70
2018-07-19T15:30:28.369Z,29.80
2018-07-19T15:32:59.362Z,29.70
2018-07-19T15:35:30.626Z,29.70
2018-07-19T15:38:02.005Z,29.70
2018-07-19T15:40:33.876Z,29.80
2018-07-19T15:43:05.052Z,29.80
2018-07-19T15:45:36.795Z,29.80
2018-07-19T15:48:08.026Z,29.80
2018-07-19T15:50:39.789Z,29.80
2018-07-19T15:53:11.393Z,29.80
2018-07-19T15:55:42.206Z,29.80
2018-07-19T15:58:13.881Z,29.90
2018-07-19T16:00:44.510Z,29.90
2018-07-19T16:03:15.877Z,30.00
2018-07-19T16:05:47.521Z,30.00
2018-07-19T16:08:19.075Z,29.90
2018-07-19T16:10:49.612Z,29.90
2018-07-19T16:13:21.195Z,29.90
2018-07-19T16:15:52.699Z,29.90
2018-07-19T16:18:26.711Z,29.90
2018-07-19T16:20:57.159Z,29.90
2018-07-19T16:23:28.759Z,29.90
2018-07-19T16:25:59.920Z,29.90
2018-07-19T16:28:31.660Z,29.90
2018-07-19T16:31:03.658Z,29.90
2018-07-19T16:33:35.941Z,29.90
2018-07-19T16:36:07.196Z,29.90
2018-07-19T16:38:38.306Z,29.90
2018-07-19T16:41:09.274Z,29.90
2018-07-19T16:43:40.512Z,30.00
2018-07-19T16:46:11.486Z,30.00
2018-07-19T16:48:43.497Z,30.00
2018-07-19T16:51:14.554Z,30.00
2018-07-19T16:53:46.356Z,30.00
2018-07-19T16:56:16.543Z,29.90
2018-07-19T16:58:48.457Z,29.90
2018-07-19T17:01:20.548Z,29.90
2018-07-19T17:03:51.729Z,29.80
2018-07-19T17:06:22.436Z,29.80
2018-07-19T17:08:53.878Z,29.80
2018-07-19T17:13:56.179Z,29.80
2018-07-19T17:18:58.164Z,29.80
2018-07-19T17:21:29.152Z,29.80
2018-07-19T17:24:00.638Z,29.80
2018-07-19T17:26:32.135Z,29.80
2018-07-19T17:29:03.328Z,29.80
2018-07-19T17:31:34.513Z,29.70
2018-07-19T17:34:05.487Z,29.70
2018-07-19T17:36:36.515Z,29.70
2018-07-19T17:39:12.434Z,29.60
2018-07-19T17:41:43.513Z,29.60
2018-07-19T17:44:14.190Z,29.60
2018-07-19T17:46:44.885Z,29.50
2018-07-19T17:49:15.570Z,29.50
2018-07-19T17:51:47.222Z,29.50
2018-07-19T17:54:18.714Z,29.40
2018-07-19T17:56:49.589Z,29.40
2018-07-19T17:59:21.537Z,29.40
2018-07-19T18:01:52.620Z,29.30
2018-07-19T18:04:23.266Z,29.30
2018-07-19T18:06:54.965Z,29.20
2018-07-19T18:09:26.394Z,29.20
2018-07-19T18:11:57.925Z,29.10
2018-07-19T18:14:28.116Z,29.10
2018-07-19T18:16:59.413Z,29.00
2018-07-19T18:19:31.457Z,29.00
2018-07-19T18:22:02.385Z,28.90
2018-07-19T18:24:33.935Z,28.90
2018-07-19T18:27:05.411Z,28.80
2018-07-19T18:29:36.409Z,28.80
2018-07-19T18:32:08.152Z,28.70
2018-07-19T18:34:38.360Z,28.70
2018-07-19T18:37:09.183Z,28.70
2018-07-19T18:39:40.677Z,28.60
2018-07-19T18:42:12.929Z,28.60
2018-07-19T18:44:44.135Z,28.50
2018-07-19T18:47:15.746Z,28.50
2018-07-19T18:49:47.875Z,28.50
2018-07-19T18:52:18.731Z,28.50
2018-07-19T18:54:50.128Z,28.50
2018-07-19T18:57:20.085Z,28.40
2018-07-19T18:59:54.508Z,28.40
2018-07-19T19:02:26.352Z,28.30
2018-07-19T19:04:58.338Z,28.30
2018-07-19T19:07:29.831Z,28.30
2018-07-19T19:10:01.505Z,28.20
2018-07-19T19:12:33.255Z,28.20
2018-07-19T19:15:04.070Z,28.10
2018-07-19T19:17:35.144Z,28.10
2018-07-19T19:20:06.679Z,28.10
2018-07-19T19:22:39.381Z,28.00
2018-07-19T19:25:11.664Z,28.00
2018-07-19T19:27:42.415Z,27.90
2018-07-19T19:30:13.696Z,27.90
2018-07-19T19:32:45.590Z,27.80
2018-07-19T19:35:16.633Z,27.80
2018-07-19T19:37:47.883Z,27.70
2018-07-19T19:40:19.228Z,27.60
2018-07-19T19:42:50.775Z,27.60
2018-07-19T19:45:22.969Z,27.50
2018-07-19T19:47:54.360Z,27.40
2018-07-19T19:50:25.734Z,27.40
2018-07-19T19:52:56.741Z,27.30
2018-07-19T19:55:29.576Z,27.30
2018-07-19T19:58:00.942Z,27.20
2018-07-19T20:00:32.314Z,27.10
2018-07-19T20:03:04.978Z,27.00
2018-07-19T20:05:36.812Z,26.90
2018-07-19T20:08:09.107Z,26.80
2018-07-19T20:10:41.095Z,26.80
2018-07-19T20:15:42.219Z,26.60
2018-07-19T20:18:13.593Z,26.50
2018-07-19T20:20:45.496Z,26.50
2018-07-19T20:23:16.305Z,26.40
2018-07-19T20:25:47.950Z,26.30
2018-07-19T20:28:18.922Z,26.30
2018-07-19T20:30:50.652Z,26.20
2018-07-19T20:33:21.145Z,26.10
2018-07-19T20:35:52.055Z,26.00
2018-07-19T20:38:22.880Z,26.00
2018-07-19T20:40:54.956Z,25.90
2018-07-19T20:43:26.010Z,25.80
2018-07-19T20:45:57.909Z,25.70
2018-07-19T20:48:28.884Z,25.60
2018-07-19T20:50:59.171Z,25.60
2018-07-19T20:53:30.147Z,25.50
2018-07-19T20:56:01.663Z,25.40
2018-07-19T20:58:32.885Z,25.30
2018-07-19T21:01:04.911Z,25.20
2018-07-19T21:03:36.659Z,25.20
2018-07-19T21:06:07.641Z,25.10
2018-07-19T21:08:39.588Z,25.00
2018-07-19T21:11:10.511Z,24.90
2018-07-19T21:13:45.049Z,24.80
2018-07-19T21:16:16.636Z,24.80
2018-07-19T21:18:47.624Z,24.70
2018-07-19T21:21:19.030Z,24.60
2018-07-19T21:23:50.883Z,24.50
2018-07-19T21:26:22.121Z,24.40
2018-07-19T21:28:54.726Z,24.40
2018-07-19T21:31:25.918Z,24.30
2018-07-19T21:33:57.210Z,24.30
2018-07-19T21:36:28.984Z,24.20
2018-07-19T21:39:00.992Z,24.10
2018-07-19T21:41:31.960Z,24.10
2018-07-19T21:44:02.749Z,24.00
2018-07-19T21:46:33.264Z,24.00
2018-07-19T21:49:04.447Z,23.90
2018-07-19T21:51:35.557Z,23.90
2018-07-19T21:54:06.917Z,23.80
2018-07-19T21:56:38.105Z,23.80
2018-07-19T21:59:09.447Z,23.70
2018-07-19T22:01:45.400Z,23.70
2018-07-19T22:04:17.511Z,23.60
2018-07-19T22:06:48.481Z,23.50
2018-07-19T22:09:20.187Z,23.50
2018-07-19T22:11:51.445Z,23.40
2018-07-19T22:14:22.834Z,23.40
2018-07-19T22:16:54.027Z,23.30
2018-07-19T22:19:27.168Z,23.20
2018-07-19T22:21:58.978Z,23.20
2018-07-19T22:24:31.286Z,23.10
2018-07-19T22:27:02.461Z,23.10
2018-07-19T22:29:34.343Z,23.00
2018-07-19T22:32:05.323Z,23.00
2018-07-19T22:34:36.762Z,22.90
2018-07-19T22:37:07.671Z,22.80
2018-07-19T22:39:39.424Z,22.70
2018-07-19T22:42:10.996Z,22.70
2018-07-19T22:44:41.582Z,22.60
2018-07-19T22:47:12.947Z,22.60
2018-07-19T22:49:43.643Z,22.50
2018-07-19T22:52:14.686Z,22.50
2018-07-19T22:54:45.439Z,22.50
2018-07-19T22:57:16.288Z,22.40
2018-07-19T22:59:48.045Z,22.40
2018-07-19T23:02:19.272Z,22.40
2018-07-19T23:04:50.766Z,22.30
2018-07-19T23:07:21.968Z,22.30
2018-07-19T23:09:52.719Z,22.30
2018-07-19T23:12:23.657Z,22.20
2018-07-19T23:14:55.286Z,22.20
2018-07-19T23:17:26.162Z,22.20
2018-07-19T23:19:57.105Z,22.10
2018-07-19T23:22:27.831Z,22.10
2018-07-19T23:24:59.875Z,22.00
2018-07-19T23:27:31.462Z,22.00
2018-07-19T23:30:03.412Z,21.90
2018-07-19T23:32:34.928Z,21.90
2018-07-19T23:35:06.374Z,21.90
2018-07-19T23:37:39.518Z,21.90
2018-07-19T23:40:16.169Z,21.80
2018-07-19T23:42:51.056Z,21.80
2018-07-19T23:48:31.413Z,21.70
2018-07-19T23:51:03.624Z,21.60
2018-07-19T23:53:34.882Z,21.60
2018-07-19T23:56:06.218Z,21.50
2018-07-19T23:58:37.847Z,21.50
